Time;durP1;ratioP1;P1;durP2;ratioP2;P2;SDS_P1;SDS_P2;PMS_P1;PMS_P2;Temp;Humidity;BMP_temperature;BMP_pressure;BME280_temperature;BME280_humidity;BME280_pressure;Samples;Min_cycle;Max_cycle;Signal;HPM_P1;HPM_P2
2021/12/04 00:00:52;;;;;;;20.70;17.70;;;4.60;99.90;;;;;;5016608;28;20460;-70
2021/12/04 00:03:19;;;;;;;20.40;18.40;;;4.70;99.90;;;;;;5011624;28;20499;-71
2021/12/04 00:05:49;;;;;;;20.90;19.03;;;4.70;99.90;;;;;;5012823;28;20481;-69
2021/12/04 00:08:16;;;;;;;18.93;16.23;;;4.70;99.90;;;;;;5018150;28;20481;-72
2021/12/04 00:10:43;;;;;;;19.70;17.70;;;4.70;99.90;;;;;;5014402;28;20469;-72
2021/12/04 00:13:10;;;;;;;18.07;16.50;;;4.70;99.90;;;;;;5019574;28;20465;-71
2021/12/04 00:15:37;;;;;;;26.23;16.63;;;4.80;99.90;;;;;;5018224;28;20518;-70
2021/12/04 00:18:06;;;;;;;19.93;18.23;;;4.70;99.90;;;;;;5015433;28;20465;-68
2021/12/04 00:20:34;;;;;;;18.60;17.27;;;4.80;99.90;;;;;;5017685;28;20469;-73
2021/12/04 00:23:01;;;;;;;18.40;16.90;;;4.80;99.90;;;;;;5014226;28;20466;-71
2021/12/04 00:25:29;;;;;;;18.07;16.80;;;4.80;99.90;;;;;;5020733;28;20462;-72
2021/12/04 00:27:56;;;;;;;19.20;17.27;;;4.80;99.90;;;;;;5023454;28;20471;-70
2021/12/04 00:30:23;;;;;;;18.50;17.30;;;4.80;99.90;;;;;;5019061;28;21013;-71
2021/12/04 00:32:59;;;;;;;18.33;17.20;;;4.90;99.90;;;;;;5015951;28;20556;-69
2021/12/04 00:35:43;;;;;;;18.60;17.17;;;4.90;99.90;;;;;;5018636;28;20873;-71
2021/12/04 00:49:11;;;;;;;19.43;18.33;;;5.00;99.90;;;;;;5014204;28;20616;-70
2021/12/04 00:51:42;;;;;;;19.80;18.70;;;5.00;99.90;;;;;;5020401;28;20461;-70
2021/12/04 00:54:12;;;;;;;19.73;18.53;;;4.90;99.90;;;;;;5014963;28;20469;-68
2021/12/04 00:56:39;;;;;;;20.30;19.17;;;4.90;99.90;;;;;;5013868;28;20465;-71
2021/12/04 00:59:06;;;;;;;23.77;22.27;;;4.80;99.90;;;;;;5013699;28;20466;-69
2021/12/04 01:01:33;;;;;;;24.20;22.70;;;4.80;99.90;;;;;;5014256;28;21167;-68
2021/12/04 01:04:00;;;;;;;29.70;27.00;;;4.80;99.90;;;;;;5014998;28;20534;-69
2021/12/04 01:06:27;;;;;;;29.07;27.07;;;4.80;99.90;;;;;;5014030;28;20476;-72
2021/12/04 01:08:55;;;;;;;29.43;27.10;;;4.80;99.90;;;;;;5010767;28;20572;-69
2021/12/04 01:11:22;;;;;;;29.97;27.57;;;4.70;99.90;;;;;;5011179;28;20934;-70
2021/12/04 01:13:49;;;;;;;31.10;28.07;;;4.60;99.90;;;;;;5017946;28;20475;-68
2021/12/04 01:16:16;;;;;;;29.43;27.33;;;4.70;99.90;;;;;;5018086;28;20462;-68
2021/12/04 01:18:44;;;;;;;29.63;27.10;;;4.60;99.90;;;;;;5023461;28;20468;-68
2021/12/04 01:21:11;;;;;;;30.13;27.70;;;4.60;99.90;;;;;;5015458;28;20836;-69
2021/12/04 01:23:38;;;;;;;29.90;27.40;;;4.60;99.90;;;;;;5014422;28;20465;-69
2021/12/04 01:26:07;;;;;;;29.57;27.00;;;4.60;99.90;;;;;;5013517;28;20460;-69
2021/12/04 01:28:34;;;;;;;30.73;27.80;;;4.60;99.90;;;;;;5010614;28;20485;-68
2021/12/04 01:31:01;;;;;;;30.03;27.37;;;4.70;99.90;;;;;;5016807;28;20460;-71
2021/12/04 01:33:28;;;;;;;28.87;26.57;;;4.70;99.90;;;;;;5020401;28;20462;-69
2021/12/04 01:35:55;;;;;;;28.20;25.90;;;4.70;99.90;;;;;;5011273;28;20475;-71
2021/12/04 01:38:22;;;;;;;33.33;26.10;;;4.70;99.90;;;;;;5012494;28;20570;-70
2021/12/04 01:40:49;;;;;;;30.80;27.50;;;4.60;99.90;;;;;;5016469;28;20496;-71
2021/12/04 01:43:18;;;;;;;28.77;26.00;;;4.60;99.90;;;;;;5017556;28;20834;-69
2021/12/04 01:45:44;;;;;;;27.80;25.40;;;4.60;99.90;;;;;;5018593;28;20765;-68
2021/12/04 01:48:12;;;;;;;27.20;25.10;;;4.70;99.90;;;;;;5018093;28;20855;-71
2021/12/04 01:50:39;;;;;;;27.37;24.97;;;4.60;99.90;;;;;;5015035;28;20493;-68
2021/12/04 01:53:07;;;;;;;28.43;25.40;;;4.60;99.90;;;;;;5013394;28;20468;-71
2021/12/04 01:55:36;;;;;;;27.10;24.60;;;4.60;99.90;;;;;;5014963;28;20464;-70
2021/12/04 01:58:06;;;;;;;27.10;24.90;;;4.60;99.90;;;;;;5020092;28;20469;-70
2021/12/04 02:00:38;;;;;;;28.47;25.83;;;4.60;99.90;;;;;;5020517;28;20473;-70
2021/12/04 02:03:07;;;;;;;28.07;25.30;;;4.60;99.90;;;;;;5022129;28;20463;-68
2021/12/04 02:05:37;;;;;;;26.83;24.10;;;4.60;99.90;;;;;;5025624;28;20473;-71
2021/12/04 02:08:04;;;;;;;27.00;24.30;;;4.60;99.90;;;;;;5020876;28;20461;-69
2021/12/04 02:10:31;;;;;;;28.07;25.27;;;4.60;99.90;;;;;;5012982;28;20489;-72
2021/12/04 02:12:58;;;;;;;66.37;27.30;;;4.60;99.90;;;;;;5022252;28;21260;-69
2021/12/04 02:15:26;;;;;;;42.63;26.40;;;4.70;99.90;;;;;;5020759;28;20460;-71
2021/12/04 02:17:55;;;;;;;27.07;24.73;;;4.80;99.90;;;;;;5016252;28;20477;-70
2021/12/04 02:20:25;;;;;;;31.43;25.70;;;4.80;99.90;;;;;;5027144;28;20460;-70
2021/12/04 02:22:52;;;;;;;31.00;26.30;;;4.90;99.90;;;;;;5015402;28;20470;-70
2021/12/04 02:25:19;;;;;;;28.70;25.90;;;5.00;99.90;;;;;;5017605;28;20473;-70
2021/12/04 02:27:47;;;;;;;27.60;24.90;;;5.10;99.90;;;;;;5021207;28;20465;-69
2021/12/04 02:30:16;;;;;;;27.73;25.03;;;5.00;99.90;;;;;;5013470;28;20481;-72
2021/12/04 02:32:44;;;;;;;28.20;25.60;;;5.00;99.90;;;;;;5021031;28;20474;-68
2021/12/04 02:35:12;;;;;;;27.50;25.33;;;5.10;99.90;;;;;;5017083;28;20469;-70
2021/12/04 02:37:41;;;;;;;27.10;24.97;;;5.10;99.90;;;;;;5016127;28;20535;-71
2021/12/04 02:40:11;;;;;;;26.60;24.37;;;5.10;99.90;;;;;;5017863;28;20466;-71
2021/12/04 02:42:39;;;;;;;25.50;23.50;;;5.00;99.90;;;;;;5015974;28;20473;-69
2021/12/04 02:45:10;;;;;;;25.20;23.50;;;4.90;99.90;;;;;;5025327;28;20465;-71
2021/12/04 02:47:37;;;;;;;25.53;23.83;;;4.70;99.90;;;;;;5024088;28;20845;-70
2021/12/04 02:50:07;;;;;;;24.97;23.47;;;4.60;99.90;;;;;;5022348;28;20534;-69
2021/12/04 02:52:34;;;;;;;26.17;24.10;;;4.60;99.90;;;;;;5023495;28;20465;-70
2021/12/04 02:55:04;;;;;;;25.13;23.10;;;4.50;99.90;;;;;;5014389;28;20496;-71
2021/12/04 02:57:32;;;;;;;24.67;22.70;;;4.50;99.90;;;;;;5023823;28;20473;-68
2021/12/04 02:59:59;;;;;;;25.07;22.73;;;4.50;99.90;;;;;;5019367;28;20553;-71
2021/12/04 03:02:26;;;;;;;24.83;23.03;;;4.50;99.90;;;;;;5016450;28;20457;-71
2021/12/04 03:04:55;;;;;;;23.80;21.87;;;4.60;99.90;;;;;;5016977;28;20469;-69
2021/12/04 03:07:23;;;;;;;23.80;22.30;;;4.60;99.90;;;;;;5020595;28;20487;-69
2021/12/04 03:09:51;;;;;;;24.90;22.60;;;4.50;99.90;;;;;;5021496;28;21095;-68
2021/12/04 03:12:23;;;;;;;23.93;22.20;;;4.50;99.90;;;;;;5019903;28;20460;-71
2021/12/04 03:14:50;;;;;;;23.23;21.70;;;4.50;99.90;;;;;;5017526;28;20469;-72
2021/12/04 03:17:20;;;;;;;23.10;21.47;;;4.50;99.90;;;;;;5015053;28;20762;-70
2021/12/04 03:19:47;;;;;;;23.43;21.83;;;4.50;99.90;;;;;;5014178;28;20518;-71
2021/12/04 03:22:15;;;;;;;22.63;21.20;;;4.40;99.90;;;;;;5018887;28;20457;-70
2021/12/04 03:24:43;;;;;;;22.57;21.17;;;4.40;99.90;;;;;;5020362;28;20538;-70
2021/12/04 03:27:11;;;;;;;23.20;21.80;;;4.40;99.90;;;;;;5019496;28;20471;-71
2021/12/04 03:29:42;;;;;;;22.83;21.43;;;4.40;99.90;;;;;;5014702;28;20493;-70
2021/12/04 03:32:24;;;;;;;22.70;21.20;;;4.40;99.90;;;;;;5015632;28;20461;-70
2021/12/04 03:43:08;;;;;;;22.13;20.63;;;4.40;99.90;;;;;;5021004;28;21251;-72
2021/12/04 03:45:39;;;;;;;22.87;21.17;;;4.40;99.90;;;;;;5012290;28;20471;-70
2021/12/04 03:48:10;;;;;;;22.83;20.90;;;4.40;99.90;;;;;;5015388;28;20525;-70
2021/12/04 03:50:37;;;;;;;23.57;21.80;;;4.40;99.90;;;;;;5016473;28;20535;-70
2021/12/04 03:53:05;;;;;;;21.90;20.70;;;4.40;99.90;;;;;;5018146;28;20489;-72
2021/12/04 03:55:32;;;;;;;23.00;21.50;;;4.40;99.90;;;;;;5023569;28;20469;-70
2021/12/04 03:57:59;;;;;;;22.27;20.97;;;4.40;99.90;;;;;;5022101;28;20501;-70
2021/12/04 04:00:28;;;;;;;24.03;22.00;;;4.30;99.90;;;;;;5018747;28;20496;-67
2021/12/04 04:02:58;;;;;;;25.60;23.17;;;4.30;99.90;;;;;;5015132;28;20461;-69
2021/12/04 04:05:26;;;;;;;23.33;21.87;;;4.40;99.90;;;;;;5009580;28;21131;-69
2021/12/04 04:07:54;;;;;;;25.30;22.83;;;4.50;99.90;;;;;;5021717;28;20996;-68
2021/12/04 04:10:21;;;;;;;24.13;22.53;;;4.40;99.90;;;;;;5018008;28;20499;-71
2021/12/04 04:12:48;;;;;;;24.37;22.60;;;4.40;99.90;;;;;;5016348;28;20472;-69
2021/12/04 04:15:15;;;;;;;25.53;23.43;;;4.50;99.90;;;;;;5019909;28;20457;-70
2021/12/04 04:17:43;;;;;;;24.23;22.60;;;4.50;99.90;;;;;;5019688;28;20963;-70
2021/12/04 04:20:14;;;;;;;25.10;23.20;;;4.40;99.90;;;;;;5012690;28;20465;-69
2021/12/04 04:22:42;;;;;;;26.13;23.20;;;4.40;99.90;;;;;;5019166;28;20844;-68
2021/12/04 04:25:10;;;;;;;26.17;23.77;;;4.40;99.90;;;;;;5018696;28;20471;-70
2021/12/04 04:27:37;;;;;;;25.87;23.07;;;4.40;99.90;;;;;;5014322;28;20552;-70
2021/12/04 04:30:07;;;;;;;27.57;25.10;;;4.40;99.90;;;;;;5016492;28;20492;-70
2021/12/04 04:32:34;;;;;;;26.17;24.03;;;4.40;99.90;;;;;;5011555;28;20465;-71
2021/12/04 04:35:08;;;;;;;27.03;24.43;;;4.40;99.90;;;;;;5019850;28;20468;-68
2021/12/04 04:37:42;;;;;;;25.77;23.90;;;4.40;99.90;;;;;;5016292;28;20473;-70
2021/12/04 04:40:41;;;;;;;25.50;23.60;;;4.30;99.90;;;;;;5013986;28;20766;-69
2021/12/04 05:00:07;;;;;;;26.27;24.43;;;4.30;99.90;;;;;;5022840;28;20615;-71
2021/12/04 05:10:03;;;;;;;25.70;23.60;;;4.30;99.90;;;;;;5019589;28;20467;-68
2021/12/04 05:11:08;;;;;;;26.83;24.60;;;4.30;99.90;;;;;;5011863;28;20503;-70
2021/12/04 05:13:34;;;;;;;26.33;24.47;;;4.20;99.90;;;;;;5012676;28;20576;-69
2021/12/04 05:16:11;;;;;;;26.43;24.63;;;4.20;99.90;;;;;;5015239;28;20578;-70
2021/12/04 05:18:40;;;;;;;27.23;25.13;;;4.20;99.90;;;;;;5014779;28;20468;-70
2021/12/04 05:21:11;;;;;;;26.37;24.13;;;4.20;99.90;;;;;;5015057;28;20465;-71
2021/12/04 05:23:42;;;;;;;28.40;26.23;;;4.30;99.90;;;;;;5021819;28;20472;-68
2021/12/04 05:26:13;;;;;;;27.57;25.50;;;4.30;99.90;;;;;;5016933;28;20550;-70
2021/12/04 05:28:41;;;;;;;27.83;25.43;;;4.30;99.90;;;;;;5016490;28;20507;-68
2021/12/04 05:31:09;;;;;;;29.73;27.27;;;4.30;99.90;;;;;;5019332;28;20497;-70
2021/12/04 05:33:35;;;;;;;29.67;26.50;;;4.30;99.90;;;;;;5021193;28;20464;-71
2021/12/04 05:36:03;;;;;;;28.70;26.40;;;4.30;99.90;;;;;;5015493;28;20473;-68
2021/12/04 05:38:30;;;;;;;27.07;25.17;;;4.30;99.90;;;;;;5021447;28;20842;-68
2021/12/04 05:40:57;;;;;;;26.87;24.97;;;4.30;99.90;;;;;;5023109;28;20472;-67
2021/12/04 05:43:26;;;;;;;26.97;24.97;;;4.30;99.90;;;;;;5020564;28;21142;-68
2021/12/04 05:46:00;;;;;;;26.63;24.83;;;4.40;99.90;;;;;;5021234;28;21328;-70
2021/12/04 05:48:34;;;;;;;27.03;25.13;;;4.40;99.90;;;;;;5023054;28;20471;-69
2021/12/04 05:53:59;;;;;;;27.87;25.73;;;4.30;99.90;;;;;;5016012;28;20821;-71
2021/12/04 05:56:29;;;;;;;28.10;25.83;;;4.40;99.90;;;;;;5016236;28;20469;-70
2021/12/04 05:58:57;;;;;;;27.33;25.13;;;4.40;99.90;;;;;;5022916;28;20466;-72
2021/12/04 06:01:25;;;;;;;27.60;25.50;;;4.40;99.90;;;;;;5017280;28;20468;-72
2021/12/04 06:03:52;;;;;;;27.90;24.73;;;4.40;99.90;;;;;;5023678;28;20473;-70
2021/12/04 06:06:19;;;;;;;28.20;26.20;;;4.30;99.90;;;;;;5020844;28;20466;-70
2021/12/04 06:08:47;;;;;;;28.03;25.90;;;4.40;99.90;;;;;;5016438;28;20476;-72
2021/12/04 06:11:15;;;;;;;27.50;25.50;;;4.30;99.90;;;;;;5015239;28;20489;-68
2021/12/04 06:13:41;;;;;;;26.80;24.93;;;4.40;99.90;;;;;;5024043;28;20461;-70
2021/12/04 06:16:10;;;;;;;27.17;25.17;;;4.30;99.90;;;;;;5020406;28;20471;-69
2021/12/04 06:18:37;;;;;;;28.63;26.30;;;4.30;99.90;;;;;;5020627;28;20468;-69
2021/12/04 06:23:48;;;;;;;27.00;25.20;;;4.40;99.90;;;;;;5022581;28;20460;-70
2021/12/04 06:26:15;;;;;;;28.20;26.00;;;4.40;99.90;;;;;;5017108;28;20460;-70
2021/12/04 06:28:42;;;;;;;28.93;26.37;;;4.30;99.90;;;;;;5021283;28;20500;-68
2021/12/04 06:31:12;;;;;;;27.77;25.67;;;4.30;99.90;;;;;;5018259;28;20588;-69
2021/12/04 06:33:40;;;;;;;28.23;26.10;;;4.30;99.90;;;;;;5017187;28;20469;-68
2021/12/04 06:36:08;;;;;;;26.77;25.07;;;4.30;99.90;;;;;;5021552;28;20460;-71
2021/12/04 06:38:37;;;;;;;27.77;25.77;;;4.40;99.90;;;;;;5023682;28;20579;-68
2021/12/04 06:41:04;;;;;;;26.93;25.03;;;4.30;99.90;;;;;;5019971;28;20465;-69
2021/12/04 06:43:32;;;;;;;27.83;25.47;;;4.30;99.90;;;;;;5023097;28;20973;-69
2021/12/04 06:46:00;;;;;;;25.60;23.90;;;4.20;99.90;;;;;;5013927;28;20486;-68
2021/12/04 06:48:39;;;;;;;27.87;25.87;;;4.10;99.90;;;;;;5017356;28;20530;-69
2021/12/04 06:51:11;;;;;;;27.03;24.57;;;4.10;99.90;;;;;;5011463;28;20579;-68
2021/12/04 06:53:42;;;;;;;27.80;25.27;;;4.10;99.90;;;;;;5018042;28;20461;-69
2021/12/04 06:56:11;;;;;;;27.90;25.23;;;4.20;99.90;;;;;;5020101;28;21064;-70
2021/12/04 06:58:38;;;;;;;26.93;24.70;;;4.20;99.90;;;;;;5022234;28;20525;-70
2021/12/04 07:01:06;;;;;;;25.93;24.07;;;4.20;99.90;;;;;;5020247;28;20461;-68
2021/12/04 07:03:35;;;;;;;28.70;25.73;;;4.30;99.90;;;;;;5022059;28;20465;-70
2021/12/04 07:06:02;;;;;;;31.53;25.60;;;4.30;99.90;;;;;;5016698;28;20484;-71
2021/12/04 07:08:28;;;;;;;27.80;25.00;;;4.20;99.90;;;;;;5013585;28;20918;-68
2021/12/04 07:10:55;;;;;;;27.27;25.10;;;4.20;99.90;;;;;;5019724;28;20495;-69
2021/12/04 07:13:22;;;;;;;26.90;24.80;;;4.30;99.90;;;;;;5017194;28;20914;-69
2021/12/04 07:15:58;;;;;;;29.87;27.03;;;4.30;99.90;;;;;;5021131;28;21002;-68
2021/12/04 07:18:25;;;;;;;31.30;24.40;;;4.30;99.90;;;;;;5020969;28;20488;-69
2021/12/04 07:20:53;;;;;;;26.70;24.33;;;4.30;99.90;;;;;;5012905;28;20470;-68
2021/12/04 07:23:20;;;;;;;28.27;25.80;;;4.30;99.90;;;;;;5019717;28;20460;-70
2021/12/04 07:25:47;;;;;;;27.47;25.27;;;4.30;99.90;;;;;;5014132;28;20995;-71
2021/12/04 07:28:14;;;;;;;27.40;25.20;;;4.30;99.90;;;;;;5017056;28;20466;-71
2021/12/04 07:30:41;;;;;;;27.10;24.73;;;4.30;99.90;;;;;;5018029;28;20488;-68
2021/12/04 07:33:08;;;;;;;28.17;26.17;;;4.40;99.90;;;;;;5019583;28;20876;-70
2021/12/04 07:35:35;;;;;;;28.37;25.97;;;4.50;99.90;;;;;;5017963;28;20473;-70
2021/12/04 07:38:03;;;;;;;29.23;26.97;;;4.50;99.90;;;;;;5014558;28;20485;-68
2021/12/04 07:40:30;;;;;;;27.97;25.50;;;4.50;99.90;;;;;;5019294;28;20526;-68
2021/12/04 07:42:57;;;;;;;28.10;25.70;;;4.50;99.90;;;;;;5010699;28;20454;-68
2021/12/04 07:45:24;;;;;;;28.67;26.50;;;4.50;99.90;;;;;;5023217;28;20469;-69
2021/12/04 07:47:52;;;;;;;29.30;26.90;;;4.60;99.90;;;;;;5021606;28;20460;-68
2021/12/04 07:50:18;;;;;;;26.97;24.97;;;4.50;99.90;;;;;;5017819;28;20460;-69
2021/12/04 07:52:45;;;;;;;28.97;26.37;;;4.50;99.90;;;;;;5013988;28;20469;-68
2021/12/04 07:55:14;;;;;;;29.37;26.27;;;4.50;99.90;;;;;;5019647;28;20475;-68
2021/12/04 07:57:40;;;;;;;27.03;24.93;;;4.50;99.90;;;;;;5018986;28;20502;-68
2021/12/04 08:00:11;;;;;;;28.90;25.80;;;4.50;99.90;;;;;;5015757;28;20794;-68
2021/12/04 08:02:40;;;;;;;26.80;24.60;;;4.50;99.90;;;;;;5015671;28;20568;-68
2021/12/04 08:05:08;;;;;;;27.90;25.73;;;4.60;99.90;;;;;;5020937;28;20465;-68
2021/12/04 08:07:35;;;;;;;30.20;27.73;;;4.50;99.90;;;;;;5016246;28;20465;-69
2021/12/04 08:10:02;;;;;;;27.33;25.10;;;4.50;99.90;;;;;;5012723;28;20477;-68
2021/12/04 08:12:30;;;;;;;27.30;25.40;;;4.50;99.90;;;;;;5026174;28;21024;-67
2021/12/04 08:14:57;;;;;;;26.87;24.97;;;4.50;99.90;;;;;;5020715;28;20487;-69
2021/12/04 08:17:25;;;;;;;28.00;25.80;;;4.60;99.90;;;;;;5018178;28;20464;-68
2021/12/04 08:19:51;;;;;;;28.83;26.00;;;4.60;99.90;;;;;;5015389;28;20464;-69
2021/12/04 08:22:18;;;;;;;26.47;24.37;;;4.60;99.90;;;;;;5010459;28;21028;-69
2021/12/04 08:24:47;;;;;;;27.00;24.80;;;4.60;99.90;;;;;;5016313;28;20977;-69
2021/12/04 08:27:14;;;;;;;27.93;24.33;;;4.60;99.90;;;;;;5024498;28;20508;-67
2021/12/04 08:29:42;;;;;;;26.30;24.23;;;4.60;99.90;;;;;;5014439;28;20465;-69
2021/12/04 08:32:09;;;;;;;29.00;23.93;;;4.60;99.90;;;;;;5015977;28;20520;-69
2021/12/04 08:34:37;;;;;;;25.63;23.70;;;4.60;99.90;;;;;;5014813;28;20469;-69
2021/12/04 08:37:04;;;;;;;27.33;24.93;;;4.60;99.90;;;;;;5022353;28;20469;-68
2021/12/04 08:39:31;;;;;;;26.30;23.87;;;4.70;99.90;;;;;;5016483;28;20612;-69
2021/12/04 08:41:59;;;;;;;26.37;23.63;;;4.70;99.90;;;;;;5019317;28;20469;-69
2021/12/04 08:44:26;;;;;;;27.37;24.77;;;4.70;99.90;;;;;;5016653;28;20464;-68
2021/12/04 08:46:55;;;;;;;25.93;23.90;;;4.70;99.90;;;;;;5019003;28;20492;-68
2021/12/04 08:49:21;;;;;;;26.50;24.27;;;4.80;99.90;;;;;;5019473;28;20469;-68
2021/12/04 08:51:48;;;;;;;27.00;24.60;;;4.80;99.90;;;;;;5019983;28;20489;-68
2021/12/04 08:54:15;;;;;;;25.27;23.60;;;4.90;99.90;;;;;;5013690;28;20959;-68
2021/12/04 08:56:42;;;;;;;25.33;23.53;;;4.90;99.90;;;;;;5015756;28;20532;-68
2021/12/04 08:59:10;;;;;;;26.07;24.07;;;4.90;99.90;;;;;;5016815;28;20505;-69
2021/12/04 09:01:39;;;;;;;26.23;24.33;;;4.80;99.90;;;;;;5013428;28;20469;-69
2021/12/04 09:04:11;;;;;;;25.87;24.03;;;4.90;99.90;;;;;;5015788;28;20510;-68
2021/12/04 09:06:39;;;;;;;26.03;24.20;;;4.90;99.90;;;;;;5016569;28;20469;-68
2021/12/04 09:09:08;;;;;;;27.13;24.57;;;5.00;99.90;;;;;;5016479;28;20590;-68
2021/12/04 09:11:41;;;;;;;26.03;23.73;;;5.10;99.90;;;;;;5018253;28;20503;-68
2021/12/04 09:14:09;;;;;;;28.93;26.53;;;5.20;99.90;;;;;;5013532;28;20543;-67
2021/12/04 09:16:36;;;;;;;26.80;24.60;;;5.30;99.90;;;;;;5018803;28;20465;-68
2021/12/04 09:19:04;;;;;;;26.53;24.27;;;5.20;99.90;;;;;;5019281;28;20992;-68
2021/12/04 09:21:34;;;;;;;26.07;24.20;;;5.30;99.90;;;;;;5019583;28;20464;-68
2021/12/04 09:24:06;;;;;;;25.67;23.80;;;5.30;99.90;;;;;;5015584;28;20469;-68
2021/12/04 09:26:42;;;;;;;26.93;24.90;;;5.30;99.90;;;;;;5020946;28;20896;-68
2021/12/04 09:29:22;;;;;;;27.03;24.87;;;5.40;99.90;;;;;;5017812;28;20491;-68
2021/12/04 09:32:13;;;;;;;27.20;24.50;;;5.40;99.90;;;;;;5025905;28;20512;-68
2021/12/04 09:59:56;;;;;;;28.23;25.93;;;5.90;99.90;;;;;;5014060;28;20878;-68
2021/12/04 10:02:32;;;;;;;26.63;24.43;;;6.00;99.90;;;;;;5020784;28;20802;-69
2021/12/04 10:05:19;;;;;;;27.67;25.27;;;6.10;99.90;;;;;;5023645;28;20469;-68
2021/12/04 10:19:19;;;;;;;27.33;25.27;;;6.70;99.90;;;;;;5023385;28;20465;-69
2021/12/04 10:22:02;;;;;;;27.33;24.80;;;6.90;99.90;;;;;;5013843;28;20474;-68
2021/12/04 10:24:45;;;;;;;26.00;24.00;;;7.00;99.90;;;;;;5013232;28;20470;-69
2021/12/04 10:32:56;;;;;;;25.47;23.37;;;7.10;99.90;;;;;;4987173;28;20528;-68
2021/12/04 10:35:25;;;;;;;29.30;24.27;;;7.30;99.90;;;;;;5019166;28;20559;-71
2021/12/04 10:37:57;;;;;;;25.33;23.43;;;7.10;99.90;;;;;;5018194;28;20838;-69
2021/12/04 10:40:34;;;;;;;23.70;22.10;;;7.00;99.90;;;;;;5012856;28;20469;-72
2021/12/04 10:43:05;;;;;;;24.40;22.50;;;7.00;99.90;;;;;;5013281;28;20477;-69
2021/12/04 10:45:36;;;;;;;24.97;22.97;;;7.20;99.90;;;;;;5021442;28;20470;-69
2021/12/04 10:48:07;;;;;;;24.60;22.80;;;7.10;99.90;;;;;;5021921;28;20458;-69
2021/12/04 10:50:42;;;;;;;24.80;22.90;;;6.80;99.90;;;;;;5016761;28;20500;-68
2021/12/04 10:53:13;;;;;;;24.60;22.37;;;6.70;99.90;;;;;;5016419;28;20492;-70
2021/12/04 10:55:46;;;;;;;24.30;22.50;;;6.70;99.90;;;;;;5012108;28;20467;-70
2021/12/04 10:58:33;;;;;;;23.57;21.93;;;6.70;99.90;;;;;;5011398;28;20472;-69
2021/12/04 11:01:13;;;;;;;24.93;22.73;;;6.70;99.90;;;;;;5013407;28;20573;-69
2021/12/04 11:03:46;;;;;;;24.50;22.40;;;6.80;99.90;;;;;;5010182;28;20554;-69
2021/12/04 11:28:28;;;;;;;25.83;23.37;;;6.70;99.90;;;;;;5012201;28;20478;-76
2021/12/04 11:36:45;;;;;;;23.33;21.63;;;6.80;99.90;;;;;;5014725;28;20902;-69
2021/12/04 11:39:27;;;;;;;24.07;22.17;;;6.80;99.90;;;;;;5012835;28;20489;-73
2021/12/04 11:42:03;;;;;;;23.17;21.47;;;7.00;99.90;;;;;;5014451;28;20952;-71
2021/12/04 11:44:44;;;;;;;23.53;21.83;;;7.00;99.90;;;;;;5019971;28;20474;-71
2021/12/04 11:47:12;;;;;;;25.13;22.80;;;7.10;99.90;;;;;;5020599;28;20514;-73
2021/12/04 11:49:39;;;;;;;24.33;22.27;;;7.20;99.90;;;;;;5013691;28;20519;-75
2021/12/04 11:52:14;;;;;;;25.07;23.13;;;7.40;99.90;;;;;;5012452;28;20784;-70
2021/12/04 11:54:46;;;;;;;24.67;22.70;;;7.50;99.90;;;;;;5008144;28;20862;-68
2021/12/04 11:57:15;;;;;;;23.83;21.70;;;7.60;99.90;;;;;;5018853;28;20470;-69
2021/12/04 11:59:43;;;;;;;24.80;22.80;;;7.70;99.90;;;;;;5018683;28;20845;-68
2021/12/04 12:02:19;;;;;;;24.40;22.40;;;7.80;99.90;;;;;;5014411;28;20468;-68
2021/12/04 12:04:49;;;;;;;25.57;23.20;;;7.90;99.90;;;;;;5013490;28;20965;-71
2021/12/04 12:07:17;;;;;;;24.47;22.70;;;7.70;99.90;;;;;;5012839;28;20974;-70
2021/12/04 12:09:45;;;;;;;25.53;23.23;;;7.80;99.90;;;;;;5015165;28;20993;-69
2021/12/04 12:12:15;;;;;;;24.73;22.90;;;7.90;99.90;;;;;;5016970;28;20873;-68
2021/12/04 12:14:47;;;;;;;25.17;22.97;;;7.80;99.90;;;;;;5013794;28;21002;-70
2021/12/04 12:17:17;;;;;;;24.80;22.70;;;7.90;99.90;;;;;;5017207;28;20591;-69
2021/12/04 12:19:51;;;;;;;25.90;23.47;;;7.80;99.90;;;;;;5014196;28;20603;-70
2021/12/04 12:22:39;;;;;;;26.33;22.90;;;7.70;99.90;;;;;;5017289;28;20473;-68
2021/12/04 12:25:24;;;;;;;24.40;22.30;;;7.60;99.90;;;;;;5012556;28;21108;-70
2021/12/04 12:33:37;;;;;;;24.97;22.53;;;7.30;99.90;;;;;;5017455;28;20754;-71
2021/12/04 12:36:09;;;;;;;25.63;23.63;;;7.20;99.90;;;;;;5014610;28;20612;-70
2021/12/04 12:38:41;;;;;;;35.37;27.47;;;7.00;99.90;;;;;;5011002;28;20493;-68
2021/12/04 12:41:16;;;;;;;30.93;28.47;;;6.80;99.90;;;;;;5019522;28;20465;-68
2021/12/04 12:43:49;;;;;;;30.20;27.63;;;6.80;99.90;;;;;;5016946;28;20472;-70
2021/12/04 12:46:17;;;;;;;31.07;28.70;;;6.90;99.90;;;;;;5020309;28;20514;-70
2021/12/04 12:48:51;;;;;;;31.37;28.70;;;6.80;99.90;;;;;;5009817;28;20591;-69
2021/12/04 12:51:26;;;;;;;29.77;27.57;;;6.70;99.90;;;;;;5008197;28;20500;-69
2021/12/04 12:53:54;;;;;;;28.50;26.00;;;6.60;99.90;;;;;;5013767;28;20471;-68
2021/12/04 12:56:29;;;;;;;30.43;28.03;;;6.50;99.90;;;;;;5011147;28;20465;-69
2021/12/04 12:59:00;;;;;;;30.30;27.80;;;6.50;99.90;;;;;;5014979;28;21030;-69
2021/12/04 13:12:56;;;;;;;31.63;29.00;;;6.50;99.90;;;;;;5013643;28;21049;-69
2021/12/04 13:15:36;;;;;;;32.23;28.93;;;6.50;99.90;;;;;;5018475;28;20566;-70
2021/12/04 13:18:12;;;;;;;30.10;27.17;;;6.60;99.90;;;;;;5016550;28;20868;-70
2021/12/04 13:20:41;;;;;;;29.27;27.00;;;6.60;99.90;;;;;;5010429;28;20991;-70
2021/12/04 13:23:12;;;;;;;39.63;35.97;;;6.60;99.90;;;;;;5019683;28;20452;-70
2021/12/04 13:25:40;;;;;;;31.60;29.00;;;6.70;99.90;;;;;;5008765;28;20967;-70
2021/12/04 13:30:45;;;;;;;28.60;26.50;;;6.60;99.90;;;;;;5010763;28;20464;-73
2021/12/04 13:33:12;;;;;;;28.90;26.70;;;6.70;99.90;;;;;;5011247;28;20487;-73
2021/12/04 13:35:45;;;;;;;32.67;29.87;;;6.80;99.90;;;;;;5013262;28;20449;-71
2021/12/04 13:38:12;;;;;;;29.63;27.43;;;6.90;99.90;;;;;;5010805;28;20490;-71
2021/12/04 13:40:42;;;;;;;29.13;27.03;;;6.70;99.90;;;;;;5010046;28;20461;-73
2021/12/04 13:43:10;;;;;;;28.00;26.10;;;6.60;99.90;;;;;;5011512;28;21008;-72
2021/12/04 13:45:37;;;;;;;27.77;25.87;;;6.70;99.90;;;;;;5011170;28;20972;-70
2021/12/04 13:48:05;;;;;;;29.27;26.07;;;6.50;99.90;;;;;;5017652;28;20972;-70
2021/12/04 13:50:46;;;;;;;29.27;27.10;;;6.50;99.90;;;;;;5016535;28;20978;-73
2021/12/04 13:53:24;;;;;;;28.93;26.83;;;6.40;99.90;;;;;;5020881;28;20499;-73
2021/12/04 13:55:53;;;;;;;33.37;30.20;;;6.30;99.90;;;;;;5020453;28;20464;-70
2021/12/04 13:58:20;;;;;;;43.63;32.87;;;6.20;99.90;;;;;;5017255;28;20502;-70
2021/12/04 14:00:47;;;;;;;58.93;38.83;;;6.00;99.90;;;;;;5024021;28;20469;-71
2021/12/04 14:03:21;;;;;;;43.17;36.37;;;6.00;99.90;;;;;;5021155;28;20456;-72
2021/12/04 14:05:48;;;;;;;67.30;46.60;;;5.90;99.90;;;;;;5014820;28;20493;-70
2021/12/04 14:08:16;;;;;;;35.17;31.67;;;5.90;99.90;;;;;;5018730;28;20995;-73
2021/12/04 14:10:45;;;;;;;28.50;26.33;;;6.00;99.90;;;;;;5013785;28;20468;-73
2021/12/04 14:13:15;;;;;;;28.20;26.30;;;6.00;99.90;;;;;;5022506;28;20874;-73
2021/12/04 14:15:45;;;;;;;27.80;25.70;;;6.10;99.90;;;;;;5014686;28;20468;-71
2021/12/04 14:18:15;;;;;;;27.77;25.70;;;6.00;99.90;;;;;;5016536;28;20975;-71
2021/12/04 14:20:45;;;;;;;26.73;24.90;;;6.00;99.90;;;;;;5019748;28;20472;-69
2021/12/04 14:23:12;;;;;;;28.53;26.13;;;5.90;99.90;;;;;;5015117;28;20465;-72
2021/12/04 14:25:45;;;;;;;28.63;26.00;;;6.00;99.90;;;;;;5016016;28;20552;-72
2021/12/04 14:28:16;;;;;;;27.50;25.33;;;5.90;99.90;;;;;;5017472;28;22913;-71
2021/12/04 14:30:47;;;;;;;28.10;26.00;;;5.90;99.90;;;;;;5018038;28;20472;-69
2021/12/04 14:33:18;;;;;;;30.50;27.50;;;5.80;99.90;;;;;;5018976;28;20493;-71
2021/12/04 14:35:50;;;;;;;28.23;25.67;;;5.80;99.90;;;;;;5021588;28;20788;-70
2021/12/04 14:38:19;;;;;;;31.83;27.50;;;5.70;99.90;;;;;;5019909;28;20476;-71
2021/12/04 14:40:51;;;;;;;33.20;26.30;;;5.60;99.90;;;;;;5025857;28;20461;-70
2021/12/04 14:43:19;;;;;;;29.80;27.30;;;5.80;99.90;;;;;;5017483;28;20480;-70
2021/12/04 14:45:49;;;;;;;28.63;26.63;;;5.80;99.90;;;;;;5020072;28;20502;-70
2021/12/04 14:48:19;;;;;;;27.70;25.70;;;5.70;99.90;;;;;;5013191;28;20473;-70
2021/12/04 14:50:50;;;;;;;28.13;25.87;;;5.50;99.90;;;;;;5015057;28;20475;-72
2021/12/04 14:53:19;;;;;;;28.77;26.60;;;5.50;99.90;;;;;;5012950;28;20574;-72
2021/12/04 14:55:49;;;;;;;33.57;27.10;;;5.40;99.90;;;;;;5021678;28;20465;-71
2021/12/04 14:58:18;;;;;;;26.97;24.77;;;5.40;99.90;;;;;;5016670;28;20460;-72
2021/12/04 15:00:48;;;;;;;28.90;26.70;;;5.40;99.90;;;;;;5022853;28;20465;-71
2021/12/04 15:03:18;;;;;;;30.00;27.90;;;5.40;99.90;;;;;;5015018;28;20465;-71
2021/12/04 15:05:47;;;;;;;29.97;27.67;;;5.50;99.90;;;;;;5015427;28;20464;-70